createdAt,value
2023-07-21T03:00:58.854Z,11.89
2023-07-21T03:03:34.096Z,12.52
2023-07-21T03:06:09.168Z,12.22
2023-07-21T03:08:36.677Z,12.79
2023-07-21T03:11:08.164Z,12.98
2023-07-21T03:13:45.519Z,12.84
2023-07-21T03:16:16.303Z,12.89
2023-07-21T03:18:49.898Z,13.03
2023-07-21T03:21:19.848Z,11.89
2023-07-21T03:23:47.846Z,11.31
2023-07-21T03:26:21.776Z,12.54
2023-07-21T03:28:49.679Z,12.93
2023-07-21T03:31:17.403Z,11.93
2023-07-21T03:33:52.615Z,12.86
2023-07-21T03:36:22.461Z,11.95
2023-07-21T03:38:49.577Z,11.89
2023-07-21T03:41:18.240Z,11.76
2023-07-21T03:43:45.647Z,12.55
2023-07-21T03:46:14.171Z,13.19
2023-07-21T03:49:01.045Z,11.69
2023-07-21T03:51:29.057Z,12.97
2023-07-21T03:53:59.634Z,12.82
2023-07-21T03:56:27.757Z,13.03
2023-07-21T03:58:55.239Z,12.73
2023-07-21T04:01:22.554Z,12.82
2023-07-21T04:03:50.492Z,11.58
2023-07-21T04:06:19.428Z,12.52
2023-07-21T04:08:46.700Z,10.81
2023-07-21T04:11:13.784Z,10.70
2023-07-21T04:13:41.708Z,11.03
2023-07-21T04:16:08.820Z,12.24
2023-07-21T04:18:39.798Z,12.65
2023-07-21T04:21:08.053Z,12.20
2023-07-21T04:23:36.214Z,12.45
2023-07-21T04:26:20.949Z,12.03
2023-07-21T04:28:51.213Z,11.79
2023-07-21T04:31:24.113Z,12.18
2023-07-21T04:34:21.051Z,12.41
2023-07-21T04:36:49.495Z,11.40
2023-07-21T04:39:39.482Z,11.87
2023-07-21T04:42:08.224Z,12.11
2023-07-21T04:44:35.968Z,13.53
2023-07-21T04:47:12.404Z,12.60
2023-07-21T04:49:50.258Z,11.02
2023-07-21T04:52:33.283Z,11.55
2023-07-21T04:55:00.513Z,13.00
2023-07-21T04:57:30.426Z,12.50
2023-07-21T05:00:29.909Z,12.06
2023-07-21T05:03:51.103Z,13.84
2023-07-21T05:06:32.742Z,12.25
2023-07-21T05:09:12.019Z,11.62
2023-07-21T05:12:26.721Z,12.73
2023-07-21T05:15:46.891Z,12.69
2023-07-21T05:21:55.204Z,11.77
2023-07-21T05:24:50.259Z,12.45
2023-07-21T06:08:14.144Z,14.37
2023-07-21T07:00:58.581Z,17.40
2023-07-21T07:12:08.528Z,18.67
2023-07-21T07:14:43.459Z,18.77
2023-07-21T07:20:21.254Z,17.82
2023-07-21T07:22:52.275Z,16.49
2023-07-21T07:25:27.678Z,17.59
2023-07-21T07:30:59.104Z,17.00
2023-07-21T07:33:44.202Z,18.17
2023-07-21T07:36:21.420Z,16.91
2023-07-21T07:41:52.908Z,17.82
2023-07-21T07:44:27.683Z,18.93
2023-07-21T07:47:18.404Z,19.18
2023-07-21T07:49:52.066Z,18.76
2023-07-21T07:52:33.723Z,20.37
2023-07-21T07:55:12.490Z,19.95
2023-07-21T07:57:43.409Z,18.95
2023-07-21T08:00:26.813Z,19.11
2023-07-21T08:03:12.971Z,20.34
2023-07-21T08:05:55.087Z,18.42
2023-07-21T08:08:33.072Z,20.02
2023-07-21T08:11:10.790Z,20.48
2023-07-21T08:13:48.085Z,19.78
2023-07-21T08:16:25.896Z,19.35
2023-07-21T08:18:59.141Z,21.73
2023-07-21T09:31:45.786Z,22.37
2023-07-21T09:34:14.261Z,23.17
2023-07-21T09:36:49.999Z,23.46
2023-07-21T09:39:19.600Z,23.27
2023-07-21T09:41:53.091Z,22.76
2023-07-21T09:44:21.578Z,21.94
2023-07-21T09:47:00.943Z,21.21
2023-07-21T09:49:30.928Z,22.57
2023-07-21T09:52:01.421Z,22.42
2023-07-21T09:54:37.644Z,22.68
2023-07-21T09:57:26.963Z,22.29
2023-07-21T10:00:20.795Z,23.43
2023-07-21T10:03:25.575Z,22.76
2023-07-21T10:12:27.464Z,22.61
2023-07-21T10:15:31.166Z,23.14
2023-07-21T10:18:17.194Z,22.66
2023-07-21T10:21:10.512Z,22.74
2023-07-21T10:23:58.808Z,21.97
2023-07-21T10:26:31.911Z,22.90
2023-07-21T10:29:24.856Z,24.23
2023-07-21T10:32:03.091Z,24.13
2023-07-21T10:37:25.866Z,23.14
2023-07-21T10:40:12.653Z,23.12
2023-07-21T10:42:45.699Z,22.38
2023-07-21T10:45:33.124Z,22.30
2023-07-21T10:48:22.865Z,23.39
2023-07-21T10:51:05.991Z,22.31
2023-07-21T10:53:54.333Z,22.13
2023-07-21T10:57:02.194Z,21.88
2023-07-21T10:59:56.216Z,22.38
2023-07-21T11:02:37.995Z,23.27
2023-07-21T11:05:32.396Z,22.48
2023-07-21T11:08:10.964Z,23.59
2023-07-21T11:11:05.280Z,23.39
2023-07-21T11:13:54.604Z,22.89
2023-07-21T11:19:36.156Z,22.38
2023-07-21T11:22:09.721Z,23.20
2023-07-21T11:24:41.755Z,22.88
2023-07-21T11:27:13.935Z,23.49
2023-07-21T11:29:48.110Z,22.00
2023-07-21T11:32:28.617Z,22.31
2023-07-21T11:35:06.794Z,22.24
2023-07-21T11:37:46.535Z,22.27
2023-07-21T11:40:26.666Z,23.71
2023-07-21T11:43:06.094Z,22.48
2023-07-21T11:45:48.261Z,22.27
2023-07-21T11:48:17.733Z,24.28
2023-07-21T11:51:10.254Z,23.77
2023-07-21T11:53:56.419Z,22.90
2023-07-21T11:56:43.980Z,22.33
2023-07-21T11:59:12.833Z,22.36
2023-07-21T12:01:40.861Z,23.31
2023-07-21T12:04:08.276Z,24.01
2023-07-21T12:06:41.304Z,24.20
2023-07-21T12:09:15.518Z,22.92
2023-07-21T12:11:42.839Z,22.41
2023-07-21T12:14:18.889Z,23.21
2023-07-21T12:16:51.864Z,23.66
2023-07-21T12:19:25.942Z,22.49
2023-07-21T12:22:00.458Z,22.77
2023-07-21T12:24:28.277Z,22.05
2023-07-21T12:26:55.530Z,22.51
2023-07-21T12:29:37.927Z,22.00
2023-07-21T12:32:16.060Z,22.42
2023-07-21T12:34:52.751Z,21.05
2023-07-21T12:37:34.328Z,22.33
2023-07-21T12:40:07.591Z,22.55
2023-07-21T12:42:35.111Z,21.70
2023-07-21T12:45:10.221Z,21.95
2023-07-21T12:47:40.376Z,21.22
2023-07-21T12:50:11.760Z,20.39
2023-07-21T12:52:39.860Z,20.80
2023-07-21T12:55:13.351Z,21.29
2023-07-21T12:57:50.149Z,21.98
2023-07-21T13:00:33.139Z,22.15
2023-07-21T13:05:59.851Z,22.28
2023-07-21T13:08:40.157Z,22.71
2023-07-21T13:11:21.808Z,23.09
2023-07-21T13:13:54.676Z,23.82
2023-07-21T13:16:50.862Z,23.98
2023-07-21T13:19:17.973Z,25.05
2023-07-21T13:21:50.965Z,25.03
2023-07-21T13:24:35.960Z,23.88
2023-07-21T13:27:11.728Z,24.05
2023-07-21T13:30:03.623Z,24.01
2023-07-21T13:33:13.292Z,25.30
2023-07-21T13:36:10.042Z,25.02
2023-07-21T13:39:08.094Z,23.50
2023-07-21T13:45:09.466Z,23.96
2023-07-21T13:48:36.474Z,23.20
2023-07-21T13:51:26.070Z,23.48
2023-07-21T13:54:44.069Z,24.14
2023-07-21T13:57:35.938Z,23.09
2023-07-21T14:00:26.707Z,23.05
2023-07-21T14:09:35.985Z,24.22
2023-07-21T14:12:13.743Z,23.30
2023-07-21T14:14:41.790Z,23.75
2023-07-21T14:17:32.963Z,25.41
2023-07-21T14:20:23.445Z,23.74
2023-07-21T14:32:42.949Z,24.73
2023-07-21T16:31:11.770Z,21.99
2023-07-21T16:33:38.804Z,20.60
2023-07-21T16:36:06.256Z,20.67
2023-07-21T16:38:33.779Z,21.06
2023-07-21T16:41:02.558Z,21.34
2023-07-21T16:43:30.142Z,20.80
2023-07-21T16:45:57.452Z,20.32
2023-07-21T16:48:24.944Z,20.69
2023-07-21T16:50:52.803Z,21.19
2023-07-21T16:53:21.316Z,19.96
2023-07-21T16:55:50.362Z,19.31
2023-07-21T16:58:19.817Z,17.86
2023-07-21T17:00:47.875Z,18.49
2023-07-21T17:03:16.982Z,16.54
2023-07-21T17:05:44.322Z,18.54
2023-07-21T17:08:11.345Z,16.86
2023-07-21T17:10:38.585Z,17.34
2023-07-21T17:13:05.715Z,16.80
2023-07-21T17:15:33.184Z,16.80
2023-07-21T17:18:01.373Z,17.17
2023-07-21T17:20:28.644Z,17.36
2023-07-21T17:22:58.536Z,16.67
2023-07-21T17:25:28.337Z,16.72
2023-07-21T17:31:09.459Z,15.11
2023-07-21T17:33:36.455Z,14.98
2023-07-21T17:36:03.645Z,13.32
2023-07-21T17:38:30.836Z,13.60
2023-07-21T17:41:04.595Z,14.67
2023-07-21T17:43:33.239Z,14.03
2023-07-21T17:46:02.702Z,14.98
2023-07-21T17:48:33.106Z,14.06
2023-07-21T17:51:00.841Z,14.73
2023-07-21T17:53:27.807Z,14.97
2023-07-21T17:55:54.844Z,14.89
2023-07-21T17:58:24.426Z,13.85
2023-07-21T18:00:52.019Z,14.40
2023-07-21T18:03:19.655Z,13.50
2023-07-21T18:05:47.914Z,13.65
2023-07-21T18:08:15.057Z,14.73
2023-07-21T18:10:42.073Z,14.86
2023-07-21T18:13:11.180Z,14.44
2023-07-21T18:15:39.083Z,15.10
2023-07-21T18:18:08.377Z,15.12
2023-07-21T18:20:35.491Z,14.85
2023-07-21T18:23:04.036Z,15.10
2023-07-21T18:25:31.761Z,14.94
2023-07-21T18:27:58.963Z,14.98
2023-07-21T18:30:25.994Z,13.77
2023-07-21T18:32:53.229Z,14.62
2023-07-21T18:38:43.949Z,15.13
2023-07-21T18:41:11.458Z,14.76
2023-07-21T18:43:38.775Z,14.26
2023-07-21T18:46:06.230Z,14.03
2023-07-21T18:48:33.859Z,14.35
2023-07-21T18:51:01.836Z,14.24
2023-07-21T18:53:28.991Z,13.34
2023-07-21T18:55:55.953Z,14.84
2023-07-21T18:58:23.152Z,14.82
2023-07-21T19:00:50.487Z,14.16
2023-07-21T19:03:17.652Z,14.94
2023-07-21T19:05:44.733Z,12.93
2023-07-21T19:08:11.942Z,14.14
2023-07-21T19:10:42.137Z,13.74
2023-07-21T19:13:09.264Z,13.90
2023-07-21T19:15:39.175Z,14.67
2023-07-21T19:18:06.261Z,14.28
2023-07-21T19:20:35.866Z,15.04
2023-07-21T19:23:02.945Z,14.94
2023-07-21T19:25:29.943Z,14.31
2023-07-21T20:00:44.073Z,12.53
2023-07-21T20:03:11.274Z,14.41
2023-07-21T20:05:38.735Z,13.20
2023-07-21T20:08:05.833Z,14.74
2023-07-21T20:10:33.098Z,13.64
2023-07-21T20:13:00.501Z,13.56
2023-07-21T22:35:13.680Z,12.32
2023-07-21T22:37:40.790Z,12.34
2023-07-21T22:40:08.505Z,12.51
2023-07-21T22:42:36.300Z,12.50
2023-07-21T22:45:03.509Z,11.99
2023-07-21T22:47:30.475Z,12.47
2023-07-21T22:49:57.548Z,12.41
2023-07-21T22:52:24.981Z,12.23
2023-07-21T22:54:51.971Z,12.97
2023-07-21T22:57:19.418Z,12.98
2023-07-21T22:59:46.620Z,12.22
2023-07-21T23:02:13.642Z,12.60
2023-07-21T23:04:40.771Z,12.49
2023-07-21T23:07:07.898Z,12.13
2023-07-21T23:09:34.895Z,12.68
2023-07-21T23:12:04.590Z,12.39
2023-07-21T23:14:31.602Z,11.76
2023-07-21T23:16:58.811Z,12.85
2023-07-21T23:19:25.785Z,12.07
2023-07-21T23:21:54.033Z,11.77
2023-07-21T23:24:21.085Z,12.04
2023-07-21T23:26:48.222Z,11.84
2023-07-21T23:29:15.391Z,11.84
2023-07-21T23:31:42.587Z,12.59
2023-07-21T23:34:09.578Z,12.78
2023-07-21T23:36:38.022Z,12.53
2023-07-21T23:39:07.357Z,12.61
2023-07-21T23:41:34.867Z,12.69
2023-07-21T23:44:01.973Z,12.46
2023-07-21T23:46:29.237Z,12.10
2023-07-21T23:48:56.445Z,12.74
2023-07-21T23:51:23.290Z,12.27
2023-07-21T23:53:50.175Z,12.74
2023-07-21T23:56:17.124Z,12.18
2023-07-21T23:58:45.117Z,12.89
